createdAt,value
2024-03-22T00:01:59.917Z,100123.05
2024-03-22T00:04:30.898Z,100115.62
2024-03-22T00:07:01.702Z,100114.89
2024-03-22T00:09:32.966Z,100110.27
2024-03-22T00:12:04.886Z,100105.30
2024-03-22T00:14:36.938Z,100101.21
2024-03-22T00:17:08.015Z,100104.90
2024-03-22T00:19:39.295Z,100109.77
2024-03-22T00:22:10.143Z,100100.34
2024-03-22T00:24:41.527Z,100095.52
2024-03-22T00:27:13.511Z,100086.36
2024-03-22T00:29:45.134Z,100080.45
2024-03-22T00:32:18.343Z,100075.13
2024-03-22T00:34:49.166Z,100069.48
2024-03-22T00:37:19.828Z,100070.98
2024-03-22T00:39:51.141Z,100075.48
2024-03-22T00:42:21.913Z,100072.14
2024-03-22T00:44:52.675Z,100071.55
2024-03-22T00:47:23.310Z,100069.37
2024-03-22T00:49:54.276Z,100066.20
2024-03-22T00:52:25.983Z,100057.70
2024-03-22T00:54:56.907Z,100055.52
2024-03-22T00:57:27.626Z,100049.45
2024-03-22T00:59:58.492Z,100043.08
2024-03-22T01:02:29.303Z,100039.57
2024-03-22T01:05:00.137Z,100041.62
2024-03-22T01:07:31.196Z,100046.86
2024-03-22T01:10:02.347Z,100042.67
2024-03-22T01:12:33.274Z,100042.77
2024-03-22T01:15:04.783Z,100046.55
2024-03-22T01:17:35.693Z,100038.42
2024-03-22T01:20:07.969Z,100031.48
2024-03-22T01:22:39.219Z,100031.11
2024-03-22T01:25:11.473Z,100030.05
2024-03-22T01:27:42.292Z,100029.67
2024-03-22T01:30:14.457Z,100027.43
2024-03-22T01:32:45.174Z,100025.30
2024-03-22T01:35:16.415Z,100023.26
2024-03-22T01:37:47.189Z,100024.42
2024-03-22T01:40:19.085Z,100024.14
2024-03-22T01:42:50.245Z,100020.51
2024-03-22T01:45:21.570Z,100016.88
2024-03-22T01:47:52.744Z,100017.02
2024-03-22T01:50:23.873Z,100016.55
2024-03-22T01:52:54.634Z,100019.33
2024-03-22T01:55:25.989Z,100014.64
2024-03-22T01:57:57.449Z,100019.84
2024-03-22T02:00:28.260Z,100008.43
2024-03-22T02:02:59.380Z,100011.23
2024-03-22T02:05:30.292Z,100011.96
2024-03-22T02:08:01.003Z,100009.39
2024-03-22T02:10:31.965Z,100006.94
2024-03-22T02:13:03.323Z,100002.70
2024-03-22T02:15:35.112Z,100000.55
2024-03-22T02:18:06.514Z,100000.77
2024-03-22T02:20:37.321Z,99993.62
2024-03-22T02:23:08.271Z,99995.25
2024-03-22T02:25:39.127Z,99988.28
2024-03-22T02:28:09.905Z,99986.38
2024-03-22T02:30:40.949Z,99980.96
2024-03-22T02:33:11.998Z,99977.36
2024-03-22T02:35:43.046Z,99974.59
2024-03-22T02:38:13.751Z,99975.13
2024-03-22T02:40:46.656Z,99970.05
2024-03-22T02:43:18.630Z,99966.80
2024-03-22T02:45:49.772Z,99967.39
2024-03-22T02:48:20.409Z,99965.96
2024-03-22T02:50:51.369Z,99965.02
2024-03-22T02:53:22.561Z,99956.84
2024-03-22T02:55:53.591Z,99958.61
2024-03-22T02:58:24.662Z,99954.35
2024-03-22T03:00:55.411Z,99948.47
2024-03-22T03:03:26.202Z,99951.48
2024-03-22T03:05:57.626Z,99942.59
2024-03-22T03:08:28.521Z,99935.74
2024-03-22T03:10:59.629Z,99937.05
2024-03-22T03:13:30.717Z,99936.09
2024-03-22T03:16:01.598Z,99933.21
2024-03-22T03:18:32.377Z,99926.29
2024-03-22T03:21:03.053Z,99920.43
2024-03-22T03:23:33.773Z,99921.58
2024-03-22T03:26:04.921Z,99912.94
2024-03-22T03:28:35.686Z,99913.67
2024-03-22T03:31:07.632Z,99908.39
2024-03-22T03:33:38.354Z,99905.85
2024-03-22T03:36:09.950Z,99904.87
2024-03-22T03:38:40.799Z,99905.38
2024-03-22T03:41:11.673Z,99905.53
2024-03-22T03:43:42.514Z,99907.14
2024-03-22T03:46:13.520Z,99902.52
2024-03-22T03:48:45.342Z,99902.27
2024-03-22T03:51:16.185Z,99896.82
2024-03-22T03:53:46.912Z,99901.92
2024-03-22T03:56:18.275Z,99900.86
2024-03-22T03:58:49.995Z,99891.78
2024-03-22T04:01:20.799Z,99887.10
2024-03-22T04:03:52.722Z,99887.38
2024-03-22T04:06:23.562Z,99879.69
2024-03-22T04:08:54.335Z,99878.47
2024-03-22T04:11:25.198Z,99876.16
2024-03-22T04:13:56.056Z,99873.02
2024-03-22T04:16:26.979Z,99872.38
2024-03-22T04:18:57.846Z,99873.93
2024-03-22T04:21:28.711Z,99877.07
2024-03-22T04:23:59.403Z,99876.58
2024-03-22T04:26:30.699Z,99866.94
2024-03-22T04:29:01.691Z,99865.44
2024-03-22T04:31:32.716Z,99861.39
2024-03-22T04:34:03.991Z,99861.15
2024-03-22T04:36:35.428Z,99869.97
2024-03-22T04:39:06.523Z,99868.22
2024-03-22T04:41:37.903Z,99870.77
2024-03-22T04:44:09.223Z,99869.12
2024-03-22T04:46:43.076Z,99869.23
2024-03-22T04:49:14.390Z,99872.97
2024-03-22T04:51:45.385Z,99866.38
2024-03-22T04:54:16.314Z,99868.82
2024-03-22T04:56:47.937Z,99868.53
2024-03-22T04:59:18.646Z,99867.52
2024-03-22T05:01:49.471Z,99865.66
2024-03-22T05:04:20.172Z,99864.05
2024-03-22T05:06:51.092Z,99859.35
2024-03-22T05:09:22.055Z,99857.59
2024-03-22T05:11:53.266Z,99859.19
2024-03-22T05:14:24.451Z,99862.71
2024-03-22T05:16:55.411Z,99861.52
2024-03-22T05:19:26.210Z,99859.65
2024-03-22T05:21:56.900Z,99858.15
2024-03-22T05:24:27.684Z,99852.89
2024-03-22T05:26:58.612Z,99856.84
2024-03-22T05:29:29.529Z,99854.72
2024-03-22T05:32:01.791Z,99855.62
2024-03-22T05:34:32.585Z,99850.34
2024-03-22T05:37:03.461Z,99847.58
2024-03-22T05:39:35.253Z,99842.39
2024-03-22T05:42:08.062Z,99836.45
2024-03-22T05:44:38.913Z,99837.95
2024-03-22T05:47:10.365Z,99831.11
2024-03-22T05:49:42.444Z,99830.03
2024-03-22T05:52:13.340Z,99825.72
2024-03-22T05:54:44.030Z,99826.17
2024-03-22T05:57:15.466Z,99823.46
2024-03-22T05:59:46.282Z,99818.80
2024-03-22T06:02:17.468Z,99819.55
2024-03-22T06:04:48.484Z,99822.17
2024-03-22T06:07:19.225Z,99813.88
2024-03-22T06:09:50.232Z,99808.27
2024-03-22T06:12:23.004Z,99807.20
2024-03-22T06:14:53.704Z,99802.38
2024-03-22T06:17:24.518Z,99802.22
2024-03-22T06:19:55.857Z,99801.84
2024-03-22T06:22:26.603Z,99797.11
2024-03-22T06:24:57.425Z,99797.63
2024-03-22T06:27:28.457Z,99796.77
2024-03-22T06:29:59.281Z,99796.08
2024-03-22T06:32:30.453Z,99802.71
2024-03-22T06:35:01.874Z,99801.10
2024-03-22T06:37:32.841Z,99806.90
2024-03-22T06:40:03.794Z,99798.86
2024-03-22T06:42:35.034Z,99799.70
2024-03-22T06:45:07.467Z,99800.20
2024-03-22T06:47:38.571Z,99794.98
2024-03-22T06:50:10.954Z,99792.70
2024-03-22T06:52:41.834Z,99791.16
2024-03-22T06:55:12.973Z,99792.38
2024-03-22T06:57:43.936Z,99789.08
2024-03-22T07:00:17.127Z,99789.30
2024-03-22T07:02:48.099Z,99787.25
2024-03-22T07:05:18.941Z,99792.41
2024-03-22T07:07:50.853Z,99789.73
2024-03-22T07:10:23.190Z,99790.07
2024-03-22T07:12:53.971Z,99783.97
2024-03-22T07:15:26.293Z,99782.62
2024-03-22T07:17:57.972Z,99784.58
2024-03-22T07:20:28.786Z,99782.78
2024-03-22T07:22:59.746Z,99780.04
2024-03-22T07:25:30.654Z,99775.34
2024-03-22T07:28:01.640Z,99776.27
2024-03-22T07:30:32.555Z,99780.17
2024-03-22T07:33:03.721Z,99778.83
2024-03-22T07:35:38.024Z,99780.80
2024-03-22T07:38:09.010Z,99774.80
2024-03-22T07:40:39.873Z,99769.44
2024-03-22T07:43:10.631Z,99768.21
2024-03-22T07:45:41.438Z,99767.46
2024-03-22T07:48:12.570Z,99763.91
2024-03-22T07:50:43.698Z,99759.36
2024-03-22T07:53:15.019Z,99753.60
2024-03-22T07:55:45.956Z,99753.55
2024-03-22T07:58:16.915Z,99753.19
2024-03-22T08:00:49.476Z,99751.58
2024-03-22T08:03:20.330Z,99750.64
2024-03-22T08:05:51.197Z,99751.82
2024-03-22T08:08:22.382Z,99745.67
2024-03-22T08:10:53.306Z,99737.25
2024-03-22T08:13:24.240Z,99733.61
2024-03-22T08:15:54.996Z,99734.29
2024-03-22T08:18:25.897Z,99736.77
2024-03-22T08:20:56.832Z,99731.70
2024-03-22T08:23:27.928Z,99727.98
2024-03-22T08:25:59.315Z,99718.66
2024-03-22T08:28:37.087Z,99715.66
2024-03-22T08:31:09.985Z,99709.07
2024-03-22T08:33:41.451Z,99714.95
2024-03-22T08:36:12.296Z,99702.30
2024-03-22T08:38:43.724Z,99697.38
2024-03-22T08:41:14.776Z,99692.43
2024-03-22T08:43:46.666Z,99685.58
2024-03-22T08:46:17.800Z,99678.67
2024-03-22T08:48:48.914Z,99683.75
2024-03-22T08:51:20.252Z,99674.44
2024-03-22T08:53:51.854Z,99668.46
2024-03-22T08:56:23.244Z,99660.65
2024-03-22T08:58:54.453Z,99658.73
2024-03-22T09:01:25.373Z,99650.19
2024-03-22T09:03:56.151Z,99653.02
2024-03-22T09:06:26.995Z,99642.63
2024-03-22T09:08:59.136Z,99639.77
2024-03-22T09:11:30.400Z,99636.73
2024-03-22T09:14:01.309Z,99627.74
2024-03-22T09:16:33.164Z,99632.54
2024-03-22T09:19:04.839Z,99627.71
2024-03-22T09:21:35.795Z,99626.79
2024-03-22T09:24:07.484Z,99624.88
2024-03-22T09:26:38.576Z,99620.83
2024-03-22T09:29:10.205Z,99619.20
2024-03-22T09:31:42.452Z,99619.61
2024-03-22T09:34:17.081Z,99614.19
2024-03-22T09:36:48.608Z,99613.01
2024-03-22T09:39:20.335Z,99606.48
2024-03-22T09:41:53.037Z,99604.84
2024-03-22T09:44:27.214Z,99598.89
2024-03-22T09:46:59.610Z,99591.23
2024-03-22T09:49:30.876Z,99585.14
2024-03-22T09:52:02.146Z,99581.55
2024-03-22T09:54:33.286Z,99576.27
2024-03-22T09:57:04.917Z,99575.14
2024-03-22T09:59:35.911Z,99570.27
2024-03-22T10:02:10.362Z,99571.07
2024-03-22T10:04:42.089Z,99565.34
2024-03-22T10:07:14.682Z,99564.16
2024-03-22T10:09:45.628Z,99562.71
2024-03-22T10:12:18.240Z,99553.70
2024-03-22T10:14:48.952Z,99553.13
2024-03-22T10:17:19.888Z,99553.88
2024-03-22T10:19:52.776Z,99544.53
2024-03-22T10:22:25.852Z,99539.48
2024-03-22T10:25:01.694Z,99542.23
2024-03-22T10:27:32.587Z,99543.73
2024-03-22T10:30:06.334Z,99534.46
2024-03-22T10:32:37.420Z,99539.61
2024-03-22T10:35:14.502Z,99529.59
2024-03-22T10:37:48.662Z,99525.56
2024-03-22T10:40:22.351Z,99521.56
2024-03-22T10:42:53.367Z,99520.71
2024-03-22T10:45:26.468Z,99512.98
2024-03-22T10:47:59.346Z,99506.66
2024-03-22T10:50:31.061Z,99508.49
2024-03-22T10:53:07.410Z,99500.91
2024-03-22T10:55:40.698Z,99496.13
2024-03-22T10:58:18.780Z,99495.35
2024-03-22T11:00:53.188Z,99479.39
2024-03-22T11:03:26.087Z,99472.06
2024-03-22T11:05:59.060Z,99476.02
2024-03-22T11:08:30.978Z,99462.58
2024-03-22T11:11:12.728Z,99457.30
2024-03-22T11:13:43.865Z,99457.83
2024-03-22T11:16:15.716Z,99450.32
2024-03-22T11:18:46.621Z,99448.81
2024-03-22T11:21:17.810Z,99438.42
2024-03-22T11:23:50.441Z,99436.75
2024-03-22T11:26:22.454Z,99434.45
2024-03-22T11:28:53.134Z,99434.32
2024-03-22T11:31:28.317Z,99433.90
2024-03-22T11:33:59.609Z,99431.21
2024-03-22T11:36:31.315Z,99429.83
2024-03-22T11:39:01.941Z,99419.23
2024-03-22T11:41:33.816Z,99412.66
2024-03-22T11:44:07.761Z,99418.80
2024-03-22T11:46:38.894Z,99415.93
2024-03-22T11:49:09.640Z,99407.52
2024-03-22T11:51:41.559Z,99393.55
2024-03-22T11:54:12.381Z,99396.43
2024-03-22T11:56:46.065Z,99400.29
2024-03-22T11:59:17.262Z,99402.29
2024-03-22T12:01:48.373Z,99387.74
2024-03-22T12:04:19.459Z,99393.13
2024-03-22T12:06:50.717Z,99394.60
2024-03-22T12:09:21.409Z,99390.59
2024-03-22T12:11:52.304Z,99386.66
2024-03-22T12:14:23.232Z,99381.02
2024-03-22T12:16:53.953Z,99377.29
2024-03-22T12:19:24.975Z,99378.02
2024-03-22T12:21:56.080Z,99376.67
2024-03-22T12:24:27.933Z,99375.71
2024-03-22T12:26:58.787Z,99373.45
2024-03-22T12:29:29.657Z,99371.44
2024-03-22T12:32:02.533Z,99364.05
2024-03-22T12:34:34.443Z,99369.64
2024-03-22T12:37:06.237Z,99363.52
2024-03-22T12:39:38.208Z,99361.36
2024-03-22T12:42:10.571Z,99361.88
2024-03-22T12:44:42.621Z,99352.06
2024-03-22T12:47:15.175Z,99349.73
2024-03-22T12:49:46.703Z,99354.17
2024-03-22T12:52:18.221Z,99356.69
2024-03-22T12:54:49.290Z,99350.61
2024-03-22T12:57:19.989Z,99351.39
2024-03-22T12:59:50.902Z,99346.34
2024-03-22T13:02:21.744Z,99340.40
2024-03-22T13:04:52.842Z,99331.23
2024-03-22T13:07:23.913Z,99328.34
2024-03-22T13:09:54.737Z,99333.60
2024-03-22T13:12:26.423Z,99325.20
2024-03-22T13:15:09.663Z,99318.47
2024-03-22T13:17:43.756Z,99324.77
2024-03-22T13:20:16.313Z,99319.73
2024-03-22T13:22:47.300Z,99311.26
2024-03-22T13:25:19.617Z,99321.71
2024-03-22T13:27:50.447Z,99316.68
2024-03-22T13:30:21.595Z,99318.61
2024-03-22T13:32:52.659Z,99312.09
2024-03-22T13:35:23.476Z,99307.52
2024-03-22T13:37:54.571Z,99304.59
2024-03-22T13:40:25.633Z,99297.98
2024-03-22T13:42:57.398Z,99293.52
2024-03-22T13:45:29.952Z,99293.34
2024-03-22T13:48:01.802Z,99277.23
2024-03-22T13:50:32.976Z,99266.31
2024-03-22T13:53:04.135Z,99260.83
2024-03-22T13:55:34.907Z,99261.46
2024-03-22T13:58:15.076Z,99255.00
2024-03-22T14:00:47.293Z,99246.35
2024-03-22T14:03:18.262Z,99247.17
2024-03-22T14:05:49.342Z,99246.19
2024-03-22T14:08:21.070Z,99247.86
2024-03-22T14:10:51.826Z,99249.35
2024-03-22T14:13:22.951Z,99240.67
2024-03-22T14:15:53.961Z,99238.48
2024-03-22T14:18:24.970Z,99232.34
2024-03-22T14:20:55.764Z,99224.77
2024-03-22T14:23:26.926Z,99225.52
2024-03-22T14:25:57.833Z,99217.66
2024-03-22T14:28:28.861Z,99212.77
2024-03-22T14:31:00.070Z,99198.19
2024-03-22T14:33:31.105Z,99188.84
2024-03-22T14:36:01.865Z,99189.65
2024-03-22T14:38:33.205Z,99178.74
2024-03-22T14:41:04.568Z,99174.98
2024-03-22T14:43:36.161Z,99174.44
2024-03-22T14:46:08.223Z,99184.70
2024-03-22T14:48:39.109Z,99184.36
2024-03-22T14:51:10.638Z,99192.78
2024-03-22T14:53:42.375Z,99191.11
2024-03-22T14:56:14.459Z,99190.33
2024-03-22T14:58:45.521Z,99187.29
2024-03-22T15:01:16.425Z,99182.87
2024-03-22T15:03:47.470Z,99178.95
2024-03-22T15:06:18.353Z,99176.10
2024-03-22T15:08:49.458Z,99171.91
2024-03-22T15:11:20.263Z,99166.57
2024-03-22T15:13:51.207Z,99165.01
2024-03-22T15:16:21.931Z,99159.33
2024-03-22T15:18:52.785Z,99153.48
2024-03-22T15:21:23.484Z,99148.84
2024-03-22T15:23:54.335Z,99143.88
2024-03-22T15:26:25.144Z,99142.84
2024-03-22T15:28:56.007Z,99128.71
2024-03-22T15:31:26.873Z,99132.71
2024-03-22T15:33:58.007Z,99126.13
2024-03-22T15:36:29.552Z,99123.47
2024-03-22T15:39:01.385Z,99111.64
2024-03-22T15:41:32.157Z,99098.67
2024-03-22T15:44:03.002Z,99097.65
2024-03-22T15:46:34.186Z,99103.20
2024-03-22T15:49:06.012Z,99093.58
2024-03-22T15:51:36.853Z,99096.08
2024-03-22T15:54:08.870Z,99085.16
2024-03-22T15:56:39.912Z,99086.67
2024-03-22T15:59:11.057Z,99083.72
2024-03-22T16:01:41.892Z,99085.25
2024-03-22T16:04:12.705Z,99078.55
2024-03-22T16:06:43.621Z,99077.52
2024-03-22T16:09:15.484Z,99074.39
2024-03-22T16:11:46.278Z,99067.50
2024-03-22T16:14:17.425Z,99062.16
2024-03-22T16:16:48.500Z,99061.17
2024-03-22T16:19:19.427Z,99058.70
2024-03-22T16:21:50.519Z,99057.00
2024-03-22T16:24:21.494Z,99058.77
2024-03-22T16:26:52.570Z,99053.86
2024-03-22T16:29:25.322Z,99056.65
2024-03-22T16:31:56.596Z,99052.48
2024-03-22T16:34:27.687Z,99053.30
2024-03-22T16:36:58.566Z,99050.16
2024-03-22T16:39:30.614Z,99049.76
2024-03-22T16:42:02.357Z,99052.36
2024-03-22T16:44:34.577Z,99053.05
2024-03-22T16:47:13.136Z,99050.30
2024-03-22T16:49:45.592Z,99051.46
2024-03-22T16:52:16.644Z,99052.19
2024-03-22T16:54:47.795Z,99048.62
2024-03-22T16:57:20.027Z,99041.98
2024-03-22T16:59:56.120Z,99043.23
2024-03-22T17:02:27.673Z,99049.95
2024-03-22T17:04:58.697Z,99049.67
2024-03-22T17:07:30.099Z,99048.34
2024-03-22T17:10:01.123Z,99046.96
2024-03-22T17:12:34.648Z,99049.45
2024-03-22T17:15:09.804Z,99044.58
2024-03-22T17:17:40.872Z,99042.33
2024-03-22T17:20:15.324Z,99042.23
2024-03-22T17:22:48.305Z,99042.54
2024-03-22T17:25:19.615Z,99040.45
2024-03-22T17:27:50.661Z,99042.09
2024-03-22T17:30:21.837Z,99038.66
2024-03-22T17:32:53.154Z,99033.07
2024-03-22T17:35:24.168Z,99024.81
2024-03-22T17:37:54.936Z,99020.64
2024-03-22T17:40:25.820Z,99023.98
2024-03-22T17:42:56.655Z,99022.18
2024-03-22T17:45:27.528Z,99026.58
2024-03-22T17:47:58.290Z,99025.73
2024-03-22T17:50:29.242Z,99022.70
2024-03-22T17:53:00.048Z,99024.39
2024-03-22T17:55:30.868Z,99023.10
2024-03-22T17:58:02.052Z,99024.46
2024-03-22T18:00:33.504Z,99030.21
2024-03-22T18:03:05.248Z,99024.35
2024-03-22T18:05:36.360Z,99023.85
2024-03-22T18:08:08.857Z,99020.86
2024-03-22T18:10:40.750Z,99024.31
2024-03-22T18:13:12.459Z,99023.98
2024-03-22T18:15:43.361Z,99027.31
2024-03-22T18:18:14.248Z,99025.27
2024-03-22T18:20:45.466Z,99027.48
2024-03-22T18:23:18.075Z,99029.27
2024-03-22T18:25:49.349Z,99025.53
2024-03-22T18:28:20.499Z,99019.50
2024-03-22T18:30:51.688Z,99013.98
2024-03-22T18:33:22.811Z,99011.20
2024-03-22T18:35:54.035Z,99003.59
2024-03-22T18:38:25.115Z,99003.71
2024-03-22T18:40:56.177Z,99007.12
2024-03-22T18:43:29.413Z,99013.98
2024-03-22T18:46:00.383Z,99009.13
2024-03-22T18:48:33.258Z,99007.19
2024-03-22T18:51:07.310Z,99008.81
2024-03-22T18:53:38.650Z,99008.95
2024-03-22T18:56:10.475Z,99014.19
2024-03-22T18:58:41.324Z,99010.31
2024-03-22T19:01:12.483Z,99009.77
2024-03-22T19:03:43.459Z,99007.45
2024-03-22T19:06:14.524Z,99007.64
2024-03-22T19:08:46.463Z,99001.81
2024-03-22T19:11:18.825Z,99000.38
2024-03-22T19:13:53.390Z,99001.72
2024-03-22T19:16:27.696Z,98995.89
2024-03-22T19:19:01.799Z,98995.87
2024-03-22T19:21:35.929Z,98987.83
2024-03-22T19:24:09.819Z,98991.63
2024-03-22T19:26:42.812Z,98983.65
2024-03-22T19:29:18.368Z,98979.11
2024-03-22T19:31:52.472Z,98979.85
2024-03-22T19:34:26.982Z,98974.26
2024-03-22T19:37:02.380Z,98968.73
2024-03-22T19:39:34.001Z,98964.26
2024-03-22T19:42:07.106Z,98958.38
2024-03-22T19:44:38.760Z,98957.45
2024-03-22T19:47:11.590Z,98958.42
2024-03-22T19:49:44.200Z,98951.79
2024-03-22T19:52:16.973Z,98950.73
2024-03-22T19:54:49.093Z,98950.75
2024-03-22T19:57:21.431Z,98949.70
2024-03-22T19:59:53.795Z,98948.87
2024-03-22T20:02:29.654Z,98950.94
2024-03-22T20:05:00.386Z,98953.91
2024-03-22T20:07:32.054Z,98951.91
2024-03-22T20:10:04.409Z,98953.91
2024-03-22T20:12:37.285Z,98954.96
2024-03-22T20:15:11.613Z,98952.84
2024-03-22T20:17:43.376Z,98950.15
2024-03-22T20:20:15.666Z,98950.24
2024-03-22T20:22:51.386Z,98950.52
2024-03-22T20:25:27.371Z,98949.36
2024-03-22T20:28:05.050Z,98944.77
2024-03-22T20:30:37.101Z,98944.96
2024-03-22T20:33:09.579Z,98944.23
2024-03-22T20:35:43.202Z,98946.30
2024-03-22T20:38:15.041Z,98948.42
2024-03-22T20:40:46.491Z,98951.75
2024-03-22T20:43:19.282Z,98949.98
2024-03-22T20:45:53.400Z,98956.25
2024-03-22T20:48:29.720Z,98950.88
2024-03-22T20:51:01.635Z,98950.95
2024-03-22T20:53:36.140Z,98947.61
2024-03-22T20:56:11.290Z,98952.34
2024-03-22T20:58:46.332Z,98950.73
2024-03-22T21:01:19.918Z,98953.41
2024-03-22T21:03:54.446Z,98956.98
2024-03-22T21:06:30.429Z,98956.77
2024-03-22T21:09:02.669Z,98952.70
2024-03-22T21:11:36.876Z,98950.64
2024-03-22T21:14:16.894Z,98942.00
2024-03-22T21:16:53.915Z,98933.56
2024-03-22T21:19:32.444Z,98929.20
2024-03-22T21:22:07.254Z,98929.59
2024-03-22T21:24:39.828Z,98929.25
2024-03-22T21:27:12.205Z,98923.59
2024-03-22T21:29:45.608Z,98914.38
2024-03-22T21:32:17.562Z,98906.55
2024-03-22T21:34:49.658Z,98907.48
2024-03-22T21:37:21.911Z,98909.59
2024-03-22T21:39:55.498Z,98910.90
2024-03-22T21:42:30.531Z,98909.66
2024-03-22T21:45:01.176Z,98902.79
2024-03-22T21:47:33.232Z,98900.68
2024-03-22T21:50:05.215Z,98894.06
2024-03-22T21:52:39.521Z,98892.34
2024-03-22T21:55:12.496Z,98890.13
2024-03-22T21:57:44.158Z,98890.11
2024-03-22T22:00:15.725Z,98888.30
2024-03-22T22:02:47.687Z,98884.98
2024-03-22T22:05:20.115Z,98883.73
2024-03-22T22:07:54.259Z,98888.67
2024-03-22T22:10:25.992Z,98888.46
2024-03-22T22:12:57.885Z,98887.14
2024-03-22T22:15:29.340Z,98888.55
2024-03-22T22:18:03.327Z,98889.20
2024-03-22T22:20:34.896Z,98886.66
2024-03-22T22:23:07.274Z,98886.38
2024-03-22T22:25:39.752Z,98885.40
2024-03-22T22:28:12.500Z,98884.36
2024-03-22T22:30:45.808Z,98877.06
2024-03-22T22:33:17.598Z,98876.77
2024-03-22T22:35:51.398Z,98875.77
2024-03-22T22:38:26.210Z,98874.52
2024-03-22T22:40:58.797Z,98871.36
2024-03-22T22:43:30.046Z,98865.04
2024-03-22T22:46:02.274Z,98854.66
2024-03-22T22:48:36.331Z,98832.34
2024-03-22T22:51:10.431Z,98829.89
2024-03-22T22:53:41.991Z,98824.98
2024-03-22T22:56:13.846Z,98817.58
2024-03-22T22:58:45.373Z,98807.17
2024-03-22T23:01:20.360Z,98798.72
2024-03-22T23:03:54.830Z,98796.70
2024-03-22T23:06:26.812Z,98794.17
2024-03-22T23:08:58.788Z,98790.66
2024-03-22T23:11:31.480Z,98790.70
2024-03-22T23:14:02.794Z,98785.51
2024-03-22T23:16:35.085Z,98779.95
2024-03-22T23:19:07.000Z,98778.22
2024-03-22T23:21:39.607Z,98776.13
2024-03-22T23:24:11.082Z,98773.13
2024-03-22T23:26:43.520Z,98766.08
2024-03-22T23:29:17.091Z,98760.24
2024-03-22T23:31:49.029Z,98752.98
2024-03-22T23:34:21.070Z,98750.08
2024-03-22T23:36:53.207Z,98744.38
2024-03-22T23:39:25.106Z,98739.86
2024-03-22T23:41:56.851Z,98737.20
2024-03-22T23:44:28.610Z,98731.95
2024-03-22T23:47:04.339Z,98728.66
2024-03-22T23:49:36.217Z,98727.36
2024-03-22T23:52:09.323Z,98714.92
2024-03-22T23:54:45.024Z,98717.61
2024-03-22T23:57:18.270Z,98712.77
2024-03-22T23:59:50.197Z,98709.69
